Time;durP1;ratioP1;P1;durP2;ratioP2;P2;SDS_P1;SDS_P2;PMS_P1;PMS_P2;Temp;Humidity;BMP_temperature;BMP_pressure;BME280_temperature;BME280_humidity;BME280_pressure;Samples;Min_cycle;Max_cycle;Signal;HPM_P1;HPM_P2
2021/07/02 01:11:38;;;;;;;34.77;22.70;;;17.60;99.90;;;;;;1478524;26;20950;-75
2021/07/02 01:14:08;;;;;;;36.43;25.60;;;17.60;99.90;;;;;;5013786;28;20400;-74
2021/07/02 01:16:38;;;;;;;35.27;23.20;;;17.60;99.90;;;;;;5011934;28;20436;-74
2021/07/02 01:19:08;;;;;;;36.20;24.20;;;17.60;99.90;;;;;;5011693;28;20498;-75
2021/07/02 01:21:37;;;;;;;35.00;21.83;;;17.60;99.90;;;;;;5013298;28;20455;-75
2021/07/02 01:24:06;;;;;;;32.20;21.60;;;17.50;99.90;;;;;;5012411;28;20432;-75
2021/07/02 01:26:34;;;;;;;33.90;22.87;;;17.50;99.90;;;;;;5011596;28;20462;-75
2021/07/02 01:29:03;;;;;;;33.30;22.80;;;17.50;99.90;;;;;;5014688;28;20443;-75
2021/07/02 01:31:31;;;;;;;30.83;20.90;;;17.50;99.90;;;;;;5014724;28;20903;-75
2021/07/02 01:34:00;;;;;;;37.57;24.07;;;17.50;99.90;;;;;;5017644;28;20426;-75
2021/07/02 02:18:04;;;;;;;;;;;;;;;;;;;;;
2021/07/02 02:25:34;;;;;;;33.47;22.13;;;17.40;99.90;;;;;;4895144;29;20429;-75
2021/07/02 02:28:03;;;;;;;24.23;18.00;;;17.30;99.90;;;;;;4893155;29;20467;-75
2021/07/02 02:30:35;;;;;;;32.83;18.80;;;17.30;99.90;;;;;;4890528;29;20446;-75
2021/07/02 02:33:05;;;;;;;34.40;19.27;;;17.20;99.90;;;;;;4901176;29;20550;-75
2021/07/02 02:35:34;;;;;;;26.57;17.60;;;17.20;99.90;;;;;;4901090;29;20543;-75
2021/07/02 02:38:04;;;;;;;25.90;18.37;;;17.20;99.90;;;;;;4948776;28;20522;-75
2021/07/02 02:40:36;;;;;;;29.30;20.03;;;17.20;99.90;;;;;;4954784;28;20562;-75
2021/07/02 02:43:04;;;;;;;30.40;16.87;;;17.10;99.90;;;;;;4945386;29;20456;-75
2021/07/02 02:45:33;;;;;;;30.10;19.10;;;17.10;99.90;;;;;;4974916;28;20413;-75
2021/07/02 02:48:02;;;;;;;26.20;16.77;;;17.10;99.90;;;;;;4972194;28;20454;-75
2021/07/02 02:50:30;;;;;;;26.50;17.87;;;17.10;99.90;;;;;;4941966;29;20509;-74
2021/07/02 02:52:59;;;;;;;25.50;17.30;;;17.10;99.90;;;;;;4939522;29;20544;-75
2021/07/02 02:55:27;;;;;;;24.67;17.33;;;17.10;99.90;;;;;;4956713;29;20420;-75
2021/07/02 02:57:57;;;;;;;24.83;16.80;;;17.10;99.90;;;;;;4956698;29;20488;-75
2021/07/02 03:00:27;;;;;;;29.67;17.83;;;17.10;99.90;;;;;;4956577;29;20433;-75
2021/07/02 03:02:56;;;;;;;23.93;15.27;;;17.00;99.90;;;;;;4939918;29;20857;-75
2021/07/02 03:05:34;;;;;;;26.53;17.80;;;17.00;99.90;;;;;;4939304;29;20440;-75
2021/07/02 03:08:03;;;;;;;29.43;19.20;;;17.00;99.90;;;;;;4956234;29;20434;-75
2021/07/02 03:10:37;;;;;;;23.50;18.10;;;17.00;99.90;;;;;;4955928;28;20507;-74
2021/07/02 03:13:07;;;;;;;26.50;15.97;;;17.00;99.90;;;;;;4958530;28;20554;-75
2021/07/02 03:15:35;;;;;;;26.40;16.63;;;17.00;99.90;;;;;;4975561;28;20526;-75
2021/07/02 03:18:04;;;;;;;29.17;16.87;;;17.00;99.90;;;;;;4975867;28;20422;-74
2021/07/02 03:20:32;;;;;;;27.03;21.10;;;17.00;99.90;;;;;;4954218;28;20543;-74
2021/07/02 03:23:02;;;;;;;22.60;17.43;;;17.00;99.90;;;;;;4950528;28;20457;-75
2021/07/02 03:25:31;;;;;;;25.00;16.40;;;17.00;99.90;;;;;;4958169;28;20426;-75
2021/07/02 03:28:01;;;;;;;25.57;16.20;;;17.00;99.90;;;;;;4958128;28;20426;-75
2021/07/02 03:30:32;;;;;;;27.10;16.83;;;17.00;99.90;;;;;;4975383;28;20469;-74
2021/07/02 03:33:00;;;;;;;30.03;19.13;;;17.00;99.90;;;;;;4958962;28;20457;-75
2021/07/02 03:35:29;;;;;;;24.73;18.13;;;17.00;99.90;;;;;;4975604;28;20540;-75
2021/07/02 03:38:00;;;;;;;24.63;15.83;;;17.00;99.90;;;;;;4958217;28;20461;-74
2021/07/02 03:40:30;;;;;;;32.73;16.70;;;17.00;99.90;;;;;;4975428;28;20484;-75
2021/07/02 03:43:02;;;;;;;28.30;16.67;;;17.00;99.90;;;;;;4958044;28;20487;-74
2021/07/02 03:45:32;;;;;;;25.67;17.10;;;17.00;99.90;;;;;;4957852;28;20458;-74
2021/07/02 03:48:01;;;;;;;23.37;17.83;;;17.00;99.90;;;;;;4958495;28;20448;-75
2021/07/02 03:50:33;;;;;;;23.70;15.60;;;17.00;99.90;;;;;;4953192;28;20483;-74
2021/07/02 03:53:02;;;;;;;25.57;17.97;;;17.00;99.90;;;;;;4971367;28;20815;-73
2021/07/02 03:55:30;;;;;;;27.50;16.93;;;17.00;99.90;;;;;;4974874;28;20443;-74
2021/07/02 03:57:59;;;;;;;26.00;18.33;;;17.00;99.90;;;;;;4974909;28;21019;-75
2021/07/02 04:00:27;;;;;;;25.63;17.60;;;17.00;99.90;;;;;;4957393;28;21024;-75
2021/07/02 04:02:57;;;;;;;23.93;15.77;;;17.00;99.90;;;;;;4975291;28;20453;-75
2021/07/02 04:05:25;;;;;;;27.07;17.00;;;17.00;99.90;;;;;;4967668;28;20478;-75
2021/07/02 04:07:54;;;;;;;22.70;15.57;;;17.00;99.90;;;;;;4938264;29;20487;-75
2021/07/02 04:10:22;;;;;;;26.50;17.10;;;17.00;99.90;;;;;;4955958;29;20959;-74
2021/07/02 04:12:50;;;;;;;26.17;16.40;;;17.00;99.90;;;;;;4955861;28;20543;-75
2021/07/02 04:15:18;;;;;;;22.37;14.43;;;17.00;99.90;;;;;;4955603;29;20435;-74
2021/07/02 04:17:46;;;;;;;27.27;15.63;;;17.00;99.90;;;;;;4953273;29;20508;-75
2021/07/02 04:20:16;;;;;;;22.03;15.07;;;17.00;99.90;;;;;;4971890;28;20547;-74
2021/07/02 04:22:46;;;;;;;22.10;14.50;;;17.00;99.90;;;;;;4974584;28;20412;-74
2021/07/02 04:25:14;;;;;;;22.93;14.90;;;17.00;99.90;;;;;;4945441;28;20449;-74
2021/07/02 04:27:43;;;;;;;21.17;14.83;;;17.00;99.90;;;;;;4938099;29;21044;-75
2021/07/02 04:30:13;;;;;;;22.43;15.63;;;17.00;99.90;;;;;;4955406;29;21006;-74
2021/07/02 04:32:41;;;;;;;18.83;14.63;;;17.00;99.90;;;;;;4938168;29;20463;-73
2021/07/02 04:35:10;;;;;;;21.17;15.47;;;17.00;99.90;;;;;;4955666;29;20475;-74
2021/07/02 04:37:41;;;;;;;22.30;15.60;;;17.00;99.90;;;;;;4955476;29;20485;-75
2021/07/02 04:40:11;;;;;;;24.77;14.73;;;17.10;99.90;;;;;;4938148;29;20480;-74
2021/07/02 04:42:40;;;;;;;20.53;15.70;;;17.10;99.90;;;;;;4938109;29;20519;-74
2021/07/02 04:48:29;;;;;;;19.20;14.60;;;17.10;99.90;;;;;;4936178;29;20453;-74
2021/07/02 04:51:01;;;;;;;23.53;14.80;;;17.10;99.90;;;;;;4937769;28;20450;-75
2021/07/02 04:53:31;;;;;;;22.77;14.90;;;17.10;99.90;;;;;;4974534;28;20943;-74
2021/07/02 04:55:59;;;;;;;22.27;14.33;;;17.10;99.90;;;;;;4974264;28;20484;-74
2021/07/02 04:58:27;;;;;;;18.43;13.57;;;17.10;99.90;;;;;;4974273;28;20536;-74
2021/07/02 05:00:55;;;;;;;23.63;14.43;;;17.10;99.90;;;;;;4974119;28;20523;-74
2021/07/02 05:03:23;;;;;;;19.60;15.10;;;17.10;99.90;;;;;;4974717;28;20473;-74
2021/07/02 05:05:52;;;;;;;23.10;14.53;;;17.10;99.90;;;;;;4968416;28;21053;-74
2021/07/02 05:08:20;;;;;;;22.00;15.43;;;17.10;99.90;;;;;;4940529;29;20439;-74
2021/07/02 05:10:49;;;;;;;21.70;15.20;;;17.10;99.90;;;;;;4939698;29;20456;-74
2021/07/02 05:13:18;;;;;;;17.77;13.90;;;17.20;99.90;;;;;;4942349;29;20452;-74
2021/07/02 05:15:47;;;;;;;20.53;15.67;;;17.20;99.90;;;;;;4958722;29;20492;-74
2021/07/02 05:18:15;;;;;;;19.43;13.97;;;17.20;99.90;;;;;;4941335;29;20494;-74
2021/07/02 05:20:45;;;;;;;23.77;15.27;;;17.20;99.90;;;;;;4940607;29;20444;-74
2021/07/02 05:23:14;;;;;;;19.17;13.93;;;17.20;99.90;;;;;;4958513;29;20223;-74
2021/07/02 05:25:42;;;;;;;22.83;14.47;;;17.30;99.90;;;;;;4958405;29;20427;-74
2021/07/02 05:28:11;;;;;;;21.70;15.70;;;17.30;99.90;;;;;;4958646;29;20772;-74
2021/07/02 05:30:39;;;;;;;28.38;15.73;;;17.30;99.90;;;;;;4958199;28;20442;-75
2021/07/02 05:33:07;;;;;;;22.93;15.80;;;17.20;99.90;;;;;;4941025;29;20693;-74
2021/07/02 05:35:36;;;;;;;23.50;15.50;;;17.20;99.90;;;;;;4940978;29;20451;-74
2021/07/02 05:38:04;;;;;;;23.77;16.13;;;17.20;99.90;;;;;;4958415;29;20861;-74
2021/07/02 05:40:32;;;;;;;17.83;13.67;;;17.20;99.90;;;;;;4940775;29;20439;-75
2021/07/02 05:43:01;;;;;;;22.50;14.33;;;17.20;99.90;;;;;;4940809;29;20548;-74
2021/07/02 05:45:30;;;;;;;19.20;14.20;;;17.20;99.90;;;;;;4940815;29;21060;-74
2021/07/02 05:48:02;;;;;;;26.07;15.60;;;17.20;99.90;;;;;;4958070;29;20438;-74
2021/07/02 05:50:31;;;;;;;18.63;13.57;;;17.10;99.90;;;;;;4957859;29;20490;-74
2021/07/02 05:52:59;;;;;;;17.40;13.30;;;17.10;99.90;;;;;;4958182;29;20750;-74
2021/07/02 05:55:27;;;;;;;20.73;13.43;;;17.10;99.90;;;;;;4957785;28;20545;-74
2021/07/02 05:57:55;;;;;;;18.07;14.20;;;17.10;99.90;;;;;;4957774;28;20448;-74
2021/07/02 06:00:24;;;;;;;19.10;13.13;;;17.10;99.90;;;;;;4958282;29;20566;-74
2021/07/02 06:02:56;;;;;;;18.33;12.53;;;17.10;99.90;;;;;;4958103;29;20423;-74
2021/07/02 06:05:25;;;;;;;23.60;12.40;;;17.10;99.90;;;;;;4940459;29;20523;-73
2021/07/02 06:07:55;;;;;;;16.00;12.53;;;17.10;99.90;;;;;;4957675;29;20475;-74
2021/07/02 06:10:25;;;;;;;19.90;15.33;;;17.10;99.90;;;;;;4940339;29;20852;-74
2021/07/02 06:12:54;;;;;;;16.07;12.50;;;17.20;99.90;;;;;;4957827;29;20745;-74
2021/07/02 06:15:22;;;;;;;15.47;11.50;;;17.20;99.90;;;;;;4957649;28;20816;-74
2021/07/02 06:17:52;;;;;;;17.13;11.53;;;17.20;99.90;;;;;;4957473;29;20447;-74
2021/07/02 06:20:24;;;;;;;18.70;12.73;;;17.20;99.90;;;;;;4957698;29;20463;-74
2021/07/02 06:22:53;;;;;;;15.50;10.70;;;17.20;99.90;;;;;;4957570;29;20513;-74
2021/07/02 06:25:21;;;;;;;13.23;11.23;;;17.20;99.90;;;;;;4940033;29;20440;-73
2021/07/02 06:27:49;;;;;;;16.70;10.87;;;17.20;99.90;;;;;;4939356;29;20491;-74
2021/07/02 06:30:19;;;;;;;15.20;11.60;;;17.30;99.90;;;;;;4939914;29;20888;-74
2021/07/02 06:32:47;;;;;;;16.23;11.13;;;17.40;99.90;;;;;;4957129;29;20434;-74
2021/07/02 06:35:16;;;;;;;13.43;11.60;;;17.40;99.90;;;;;;4957097;28;20560;-74
2021/07/02 06:37:49;;;;;;;16.60;11.15;;;17.40;99.90;;;;;;4939638;29;20448;-74
2021/07/02 06:40:18;;;;;;;15.90;12.13;;;17.40;99.90;;;;;;4957056;29;20214;-73
2021/07/02 06:42:47;;;;;;;15.13;10.67;;;17.40;99.90;;;;;;4956900;29;21008;-73
2021/07/02 06:45:16;;;;;;;22.30;14.33;;;17.50;99.90;;;;;;4957850;28;20441;-73
2021/07/02 06:47:56;;;;;;;15.20;10.60;;;17.40;99.90;;;;;;4957081;29;20457;-74
2021/07/02 06:50:25;;;;;;;13.27;11.20;;;17.50;99.90;;;;;;4939938;29;20477;-74
2021/07/02 06:52:55;;;;;;;14.70;10.73;;;17.50;99.90;;;;;;4939545;29;20933;-73
2021/07/02 06:55:25;;;;;;;11.10;9.90;;;17.50;99.90;;;;;;4957041;29;20479;-74
2021/07/02 06:57:53;;;;;;;13.50;10.10;;;17.50;99.90;;;;;;4939436;29;20954;-74
2021/07/02 07:00:22;;;;;;;12.70;9.40;;;17.50;99.90;;;;;;4939439;29;21046;-74
2021/07/02 07:02:51;;;;;;;14.10;9.80;;;17.60;99.90;;;;;;4939428;29;20515;-73
2021/07/02 07:05:20;;;;;;;12.43;9.10;;;17.60;99.90;;;;;;4939351;29;20914;-74
2021/07/02 07:07:48;;;;;;;12.97;10.00;;;17.60;99.90;;;;;;4939329;29;20457;-74
2021/07/02 07:10:19;;;;;;;16.70;9.43;;;17.60;99.90;;;;;;4939179;29;20476;-73
2021/07/02 07:12:47;;;;;;;12.33;10.00;;;17.60;99.90;;;;;;4939165;29;20549;-74
2021/07/02 07:15:15;;;;;;;11.87;9.77;;;17.70;99.90;;;;;;4939106;29;21007;-74
2021/07/02 07:17:43;;;;;;;16.17;11.27;;;17.70;99.90;;;;;;4956707;29;20515;-73
2021/07/02 07:20:13;;;;;;;18.83;10.80;;;17.80;99.90;;;;;;4956688;29;20875;-73
2021/07/02 07:22:41;;;;;;;13.83;10.47;;;17.90;99.90;;;;;;4957221;28;20530;-74
2021/07/02 07:25:11;;;;;;;14.63;11.73;;;17.90;99.90;;;;;;4939243;29;20457;-74
2021/07/02 07:27:42;;;;;;;13.57;12.07;;;18.00;99.90;;;;;;4938148;29;20450;-74
2021/07/02 07:30:12;;;;;;;13.03;10.93;;;18.00;99.90;;;;;;4956205;29;20491;-74
2021/07/02 07:32:41;;;;;;;17.37;11.33;;;18.10;99.90;;;;;;4956600;29;20441;-75
2021/07/02 07:35:22;;;;;;;12.90;11.33;;;18.10;99.90;;;;;;4956443;29;20467;-74
2021/07/02 07:37:54;;;;;;;14.57;11.80;;;18.20;99.90;;;;;;4988804;22;20494;-75
2021/07/02 07:40:23;;;;;;;13.93;12.30;;;18.40;99.90;;;;;;5022902;28;20809;-74
2021/07/02 07:42:53;;;;;;;12.83;11.20;;;18.40;99.90;;;;;;5014438;28;20434;-75
2021/07/02 07:45:22;;;;;;;16.73;12.02;;;18.50;99.90;;;;;;5012057;28;20451;-75
2021/07/02 07:47:51;;;;;;;14.73;11.70;;;18.50;99.90;;;;;;5014540;28;20298;-75
2021/07/02 07:50:22;;;;;;;14.20;11.87;;;18.60;99.90;;;;;;5014155;28;20822;-76
2021/07/02 07:52:55;;;;;;;14.97;11.23;;;18.60;99.90;;;;;;5013023;28;20540;-77
2021/07/02 07:55:24;;;;;;;13.57;11.07;;;18.60;99.90;;;;;;5014638;28;20546;-76
2021/07/02 07:57:53;;;;;;;12.93;10.37;;;18.60;99.90;;;;;;5014365;28;20443;-76
2021/07/02 08:00:22;;;;;;;13.47;10.90;;;18.60;99.90;;;;;;5013990;28;20463;-76
2021/07/02 08:02:51;;;;;;;13.77;11.93;;;18.60;99.90;;;;;;5013962;28;20441;-76
2021/07/02 08:05:19;;;;;;;13.43;11.00;;;18.60;99.90;;;;;;5013928;28;20465;-76
2021/07/02 08:07:48;;;;;;;12.47;10.70;;;18.70;99.90;;;;;;5012396;28;20525;-76
2021/07/02 08:10:18;;;;;;;12.83;11.40;;;18.70;99.90;;;;;;5012505;28;20523;-76
2021/07/02 08:12:46;;;;;;;14.17;9.83;;;18.70;99.90;;;;;;5014029;28;20447;-76
2021/07/02 08:15:17;;;;;;;12.27;10.20;;;18.80;99.90;;;;;;5013935;28;20498;-75
2021/07/02 08:17:47;;;;;;;11.70;10.50;;;18.80;99.90;;;;;;5012349;28;20473;-76
2021/07/02 08:20:15;;;;;;;12.27;10.73;;;18.90;99.90;;;;;;5013567;28;20490;-75
2021/07/02 08:22:44;;;;;;;12.57;11.27;;;18.90;99.90;;;;;;5013666;28;20520;-75
2021/07/02 08:25:14;;;;;;;16.67;11.60;;;18.90;99.90;;;;;;5012628;28;20899;-76
2021/07/02 08:30:29;;;;;;;12.50;11.17;;;18.90;99.90;;;;;;5014340;28;20464;-77
2021/07/02 08:32:57;;;;;;;13.23;11.43;;;18.80;99.90;;;;;;5014728;28;20535;-76
2021/07/02 08:35:25;;;;;;;17.13;11.97;;;18.80;99.90;;;;;;5012135;28;20564;-78
2021/07/02 08:37:57;;;;;;;13.88;11.88;;;18.80;99.90;;;;;;5015157;28;20445;-75
2021/07/02 08:40:26;;;;;;;14.90;12.63;;;18.80;99.90;;;;;;5018669;28;20227;-75
2021/07/02 08:42:54;;;;;;;15.57;12.50;;;18.80;99.90;;;;;;5023063;28;20447;-75
2021/07/02 08:45:22;;;;;;;13.90;11.90;;;18.70;99.90;;;;;;5027632;28;20534;-76
2021/07/02 08:47:53;;;;;;;15.50;12.13;;;18.70;99.90;;;;;;5022962;28;20437;-75
2021/07/02 08:50:22;;;;;;;13.82;11.40;;;18.80;99.90;;;;;;5018800;28;20443;-75
2021/07/02 08:52:52;;;;;;;14.13;11.30;;;18.80;99.90;;;;;;5025937;28;20549;-76
2021/07/02 08:55:20;;;;;;;12.77;10.50;;;18.80;99.90;;;;;;5018526;28;20908;-77
2021/07/02 08:57:49;;;;;;;15.77;12.20;;;18.80;99.90;;;;;;5023118;28;20533;-76
2021/07/02 09:00:18;;;;;;;15.27;13.20;;;18.80;99.90;;;;;;5021821;28;20466;-77
2021/07/02 09:02:47;;;;;;;13.37;11.90;;;18.80;99.90;;;;;;5020496;28;20492;-76
2021/07/02 09:05:30;;;;;;;14.10;12.07;;;18.90;99.90;;;;;;5022523;28;20483;-76
2021/07/02 09:07:58;;;;;;;13.77;12.40;;;18.90;99.90;;;;;;5018515;28;20470;-75
2021/07/02 09:10:34;;;;;;;13.23;11.37;;;18.90;99.90;;;;;;5021770;28;20536;-75
2021/07/02 09:13:04;;;;;;;15.17;12.17;;;19.00;99.90;;;;;;5020643;28;20443;-76
2021/07/02 09:15:33;;;;;;;14.17;12.70;;;19.00;99.90;;;;;;5018663;28;20541;-76
2021/07/02 09:18:02;;;;;;;15.00;11.10;;;19.10;99.90;;;;;;5025257;28;20471;-75
2021/07/02 09:20:36;;;;;;;14.00;11.40;;;19.10;99.90;;;;;;5019644;28;20493;-75
2021/07/02 09:23:07;;;;;;;17.20;12.53;;;19.10;99.90;;;;;;5021250;28;20472;-76
2021/07/02 09:25:37;;;;;;;12.93;11.70;;;19.10;99.90;;;;;;5018705;28;20527;-75
2021/07/02 09:28:07;;;;;;;11.33;10.20;;;19.20;99.90;;;;;;5020955;28;20986;-75
2021/07/02 09:30:38;;;;;;;12.87;11.57;;;19.20;99.90;;;;;;5023283;28;20464;-76
2021/07/02 09:33:08;;;;;;;11.17;10.00;;;19.30;99.90;;;;;;5019966;28;20430;-75
2021/07/02 09:35:45;;;;;;;15.23;10.13;;;19.30;99.90;;;;;;5018193;28;20529;-76
2021/07/02 09:38:15;;;;;;;11.90;10.70;;;19.40;99.90;;;;;;5020302;28;20478;-76
2021/07/02 09:40:44;;;;;;;12.67;10.77;;;19.30;99.90;;;;;;5019757;28;20533;-75
2021/07/02 09:43:13;;;;;;;13.80;10.82;;;19.30;99.90;;;;;;5019606;28;20438;-75
2021/07/02 09:45:46;;;;;;;13.87;11.53;;;19.30;99.90;;;;;;5020912;28;20226;-76
2021/07/02 09:48:16;;;;;;;13.40;10.70;;;19.30;99.90;;;;;;5021336;28;20515;-76
2021/07/02 09:50:47;;;;;;;11.10;10.00;;;19.30;99.90;;;;;;5015964;28;20527;-76
2021/07/02 09:53:19;;;;;;;10.93;9.73;;;19.30;99.90;;;;;;5019900;28;20434;-76
2021/07/02 09:55:51;;;;;;;10.47;9.10;;;19.30;99.90;;;;;;5016214;28;20476;-76
2021/07/02 09:58:21;;;;;;;14.60;10.87;;;19.30;99.90;;;;;;5017787;28;20511;-75
2021/07/02 10:00:55;;;;;;;12.20;10.10;;;19.40;99.90;;;;;;5021884;28;20523;-76
2021/07/02 10:03:25;;;;;;;13.83;12.03;;;19.40;99.90;;;;;;5023128;28;20418;-75
2021/07/02 10:05:55;;;;;;;13.77;12.47;;;19.50;99.90;;;;;;5016225;28;20467;-76
2021/07/02 10:08:25;;;;;;;14.53;13.00;;;19.60;99.90;;;;;;5020687;28;20422;-76
2021/07/02 10:10:55;;;;;;;16.00;13.13;;;19.70;99.90;;;;;;5016798;28;20460;-75
2021/07/02 10:13:26;;;;;;;12.87;10.37;;;19.80;99.90;;;;;;5016925;28;20534;-76
2021/07/02 10:15:55;;;;;;;13.93;11.13;;;19.90;99.90;;;;;;5017049;28;20468;-75
2021/07/02 10:18:25;;;;;;;11.00;10.00;;;20.00;99.90;;;;;;5015979;28;20941;-75
2021/07/02 10:20:57;;;;;;;13.70;12.07;;;20.10;99.90;;;;;;5015782;28;20454;-76
2021/07/02 10:23:27;;;;;;;12.27;11.00;;;20.20;99.90;;;;;;5016358;28;20419;-76
2021/07/02 10:25:57;;;;;;;13.90;11.20;;;20.30;99.90;;;;;;5017201;28;20451;-76
2021/07/02 10:28:28;;;;;;;11.07;9.97;;;20.30;99.90;;;;;;5018265;28;20824;-76
2021/07/02 10:30:58;;;;;;;13.50;10.97;;;20.40;99.90;;;;;;5020335;28;20499;-77
2021/07/02 10:33:29;;;;;;;12.23;10.47;;;20.50;99.90;;;;;;5016214;28;20530;-75
2021/07/02 10:36:01;;;;;;;11.70;10.10;;;20.60;99.90;;;;;;5017329;28;20424;-76
2021/07/02 10:38:34;;;;;;;10.60;9.50;;;20.70;99.90;;;;;;5018584;28;20871;-76
2021/07/02 10:41:10;;;;;;;11.77;10.10;;;20.80;99.90;;;;;;5015337;28;20471;-76
2021/07/02 10:44:01;;;;;;;9.55;8.65;;;20.80;99.90;;;;;;5014097;28;20473;-75
2021/07/02 10:46:29;;;;;;;10.80;8.90;;;20.80;99.90;;;;;;5020163;28;20181;-75
2021/07/02 10:49:01;;;;;;;9.83;8.77;;;20.70;99.90;;;;;;5018568;28;20470;-75
2021/07/02 10:51:55;;;;;;;9.73;8.70;;;20.60;99.90;;;;;;5015483;28;20824;-74
2021/07/02 10:54:34;;;;;;;10.80;8.80;;;20.60;99.90;;;;;;5015698;28;20424;-75
2021/07/02 10:57:09;;;;;;;9.40;8.47;;;20.60;99.90;;;;;;5031994;28;20470;-76
2021/07/02 11:00:17;;;;;;;12.67;9.40;;;20.60;99.90;;;;;;5019053;28;20852;-75
2021/07/02 11:02:46;;;;;;;9.20;8.40;;;20.60;99.90;;;;;;5014934;28;20446;-76
2021/07/02 11:05:37;;;;;;;10.30;9.30;;;20.60;99.90;;;;;;5015261;28;20486;-75
2021/07/02 11:08:07;;;;;;;11.60;9.40;;;20.60;99.90;;;;;;5009407;28;20447;-75
2021/07/02 11:10:57;;;;;;;12.20;10.57;;;20.70;99.90;;;;;;5015843;28;20960;-75
2021/07/02 11:13:26;;;;;;;12.70;9.50;;;20.70;99.90;;;;;;5015623;28;20456;-77
2021/07/02 11:16:12;;;;;;;12.33;9.87;;;20.70;99.90;;;;;;5015405;28;20436;-76
2021/07/02 11:18:42;;;;;;;11.43;10.00;;;20.80;99.90;;;;;;5013816;28;20468;-76
2021/07/02 11:21:19;;;;;;;10.37;9.13;;;20.80;99.90;;;;;;5022063;28;20479;-77
2021/07/02 11:23:49;;;;;;;13.27;10.50;;;20.80;99.90;;;;;;5015126;28;20514;-77
2021/07/02 11:26:48;;;;;;;17.23;10.77;;;20.90;99.90;;;;;;5014992;28;20443;-77
2021/07/02 11:29:17;;;;;;;10.53;9.53;;;21.00;99.90;;;;;;5015220;28;20467;-76
2021/07/02 11:31:46;;;;;;;11.60;9.33;;;21.00;99.90;;;;;;5013526;28;20539;-76
2021/07/02 11:34:20;;;;;;;12.30;10.57;;;21.10;99.90;;;;;;5014144;28;20957;-76
2021/07/02 11:37:14;;;;;;;10.60;9.50;;;21.20;99.90;;;;;;5020312;28;20441;-75
2021/07/02 11:39:48;;;;;;;10.57;9.27;;;21.20;99.90;;;;;;5034289;28;20554;-77
2021/07/02 11:42:17;;;;;;;10.55;8.80;;;21.30;99.90;;;;;;5034220;28;20906;-76
2021/07/02 11:44:48;;;;;;;10.90;8.60;;;21.30;99.90;;;;;;5034839;28;20549;-77
2021/07/02 11:47:16;;;;;;;10.10;9.10;;;21.40;99.90;;;;;;5034843;28;20753;-76
2021/07/02 11:49:50;;;;;;;10.97;9.57;;;21.50;99.90;;;;;;5035137;28;20957;-77
2021/07/02 11:52:19;;;;;;;9.07;8.03;;;21.60;99.90;;;;;;5025614;28;20882;-76
2021/07/02 11:54:59;;;;;;;8.53;7.67;;;21.60;99.90;;;;;;5034389;28;20470;-75
2021/07/02 11:57:27;;;;;;;11.00;9.90;;;21.70;99.90;;;;;;5015159;28;20478;-76
2021/07/02 12:00:07;;;;;;;10.00;8.87;;;21.70;99.90;;;;;;5013445;28;20504;-75
2021/07/02 12:02:48;;;;;;;12.50;8.90;;;21.70;99.90;;;;;;5015205;28;20432;-76
2021/07/02 12:05:17;;;;;;;12.67;8.93;;;21.70;99.90;;;;;;5014435;28;20478;-77
2021/07/02 12:07:48;;;;;;;10.13;9.13;;;21.70;99.90;;;;;;5014057;28;20865;-77
2021/07/02 12:10:17;;;;;;;9.80;8.90;;;21.70;99.90;;;;;;5013709;28;20518;-77
2021/07/02 12:12:45;;;;;;;12.70;11.00;;;21.80;99.90;;;;;;5014187;28;20479;-77
2021/07/02 12:15:24;;;;;;;11.67;10.53;;;21.80;99.90;;;;;;5014487;28;20468;-75
2021/07/02 12:18:01;;;;;;;13.20;11.90;;;21.80;99.90;;;;;;5027504;28;20501;-76
2021/07/02 12:20:29;;;;;;;13.87;12.33;;;21.80;99.90;;;;;;5033724;28;20508;-76
2021/07/02 12:23:07;;;;;;;14.03;12.73;;;21.80;99.90;;;;;;5033291;28;20435;-76
2021/07/02 12:26:19;;;;;;;12.67;11.40;;;21.70;99.90;;;;;;5034163;28;20428;-76
2021/07/02 12:29:06;;;;;;;14.90;12.97;;;21.70;99.90;;;;;;5019408;28;20521;-75
2021/07/02 12:31:37;;;;;;;14.23;12.13;;;21.60;99.90;;;;;;5012544;28;20448;-76
2021/07/02 12:34:07;;;;;;;14.57;13.27;;;21.60;99.90;;;;;;5014401;28;20927;-76
2021/07/02 12:36:36;;;;;;;12.37;11.17;;;21.50;99.90;;;;;;5012509;28;20528;-76
2021/07/02 12:39:10;;;;;;;12.10;11.00;;;21.50;99.90;;;;;;5017212;28;20486;-75
2021/07/02 12:41:45;;;;;;;13.53;12.20;;;21.40;99.90;;;;;;5031097;28;20439;-76
2021/07/02 12:44:19;;;;;;;13.03;11.77;;;21.30;99.90;;;;;;5030420;28;20446;-76
2021/07/02 12:46:48;;;;;;;15.53;11.90;;;21.30;99.90;;;;;;5033418;28;20503;-75
2021/07/02 12:49:34;;;;;;;11.63;10.53;;;21.20;99.90;;;;;;5034627;28;20549;-76
2021/07/02 12:55:08;;;;;;;12.87;11.53;;;21.20;99.90;;;;;;4994461;28;20212;-76
2021/07/02 12:57:39;;;;;;;13.23;12.00;;;21.10;99.90;;;;;;5026066;28;20478;-76
2021/07/02 13:00:10;;;;;;;13.30;10.93;;;21.10;99.90;;;;;;5031812;28;20464;-76
2021/07/02 13:02:39;;;;;;;11.03;10.00;;;21.10;99.90;;;;;;5033256;28;20501;-77
2021/07/02 13:05:13;;;;;;;11.70;9.33;;;21.10;99.90;;;;;;5016557;28;20455;-77
2021/07/02 13:07:49;;;;;;;11.30;8.37;;;21.10;99.90;;;;;;5013280;28;20523;-76
2021/07/02 13:10:19;;;;;;;8.40;7.60;;;21.10;99.90;;;;;;5012153;28;20467;-75
2021/07/02 13:13:12;;;;;;;9.07;7.63;;;21.10;99.90;;;;;;5014418;28;20443;-76
2021/07/02 13:16:04;;;;;;;10.10;7.73;;;21.20;99.90;;;;;;5015708;28;20427;-77
2021/07/02 13:18:35;;;;;;;10.37;9.27;;;21.20;99.90;;;;;;5012039;28;20476;-76
2021/07/02 13:21:09;;;;;;;8.73;7.73;;;21.20;99.90;;;;;;5022524;28;21028;-77
2021/07/02 13:23:39;;;;;;;9.13;8.23;;;21.20;99.90;;;;;;5035180;28;20511;-75
2021/07/02 13:26:11;;;;;;;8.43;7.63;;;21.20;99.90;;;;;;5037702;28;20441;-77
2021/07/02 13:28:48;;;;;;;9.00;8.10;;;21.20;99.90;;;;;;5036843;28;20462;-76
2021/07/02 13:31:32;;;;;;;9.90;8.43;;;21.20;99.90;;;;;;5038064;28;20963;-76
2021/07/02 13:34:14;;;;;;;8.97;8.10;;;21.30;99.90;;;;;;5038858;28;20423;-77
2021/07/02 13:36:44;;;;;;;10.77;9.73;;;21.20;99.90;;;;;;5029958;28;20476;-76
2021/07/02 13:39:15;;;;;;;9.10;8.20;;;21.20;99.90;;;;;;5021495;28;20552;-77
2021/07/02 13:41:56;;;;;;;9.10;8.27;;;21.30;99.90;;;;;;5031526;28;20448;-77
2021/07/02 13:44:28;;;;;;;11.37;9.47;;;21.30;99.90;;;;;;5017997;28;20424;-77
2021/07/02 13:47:00;;;;;;;10.90;9.73;;;21.30;99.90;;;;;;5017874;28;20849;-77
2021/07/02 13:49:29;;;;;;;10.47;9.40;;;21.20;99.90;;;;;;5021418;28;20932;-78
2021/07/02 13:51:57;;;;;;;12.17;9.87;;;21.30;99.90;;;;;;5037059;28;20526;-76
2021/07/02 13:54:25;;;;;;;11.57;10.37;;;21.30;99.90;;;;;;5036854;28;20446;-76
2021/07/02 13:56:57;;;;;;;9.97;8.97;;;21.40;99.90;;;;;;5037349;28;20962;-76
2021/07/02 13:59:27;;;;;;;10.20;9.30;;;21.40;99.90;;;;;;5034956;28;20565;-77
2021/07/02 14:01:56;;;;;;;10.97;9.97;;;21.50;99.90;;;;;;5026056;28;20462;-76
2021/07/02 14:04:25;;;;;;;10.57;8.97;;;21.50;99.90;;;;;;5034016;28;20812;-76
2021/07/02 14:06:53;;;;;;;9.13;8.30;;;21.60;99.90;;;;;;5036437;28;20435;-76
2021/07/02 14:09:24;;;;;;;10.23;9.23;;;21.60;99.90;;;;;;5036382;28;20459;-75
2021/07/02 14:11:52;;;;;;;10.97;9.60;;;21.60;99.90;;;;;;5035849;28;20444;-76
2021/07/02 14:14:21;;;;;;;12.70;9.80;;;21.60;99.90;;;;;;5035713;28;20782;-76
2021/07/02 14:16:50;;;;;;;9.80;8.80;;;21.50;99.90;;;;;;5034360;28;20473;-75
2021/07/02 14:19:19;;;;;;;9.73;8.83;;;21.50;99.90;;;;;;5034343;28;20519;-76
2021/07/02 14:21:47;;;;;;;9.03;8.23;;;21.50;99.90;;;;;;5035866;28;20434;-76
2021/07/02 14:24:16;;;;;;;10.70;8.80;;;21.50;99.90;;;;;;5035733;28;20458;-77
2021/07/02 14:26:44;;;;;;;11.07;8.90;;;21.60;99.90;;;;;;5033887;28;20494;-77
2021/07/02 14:29:14;;;;;;;10.07;9.07;;;21.70;99.90;;;;;;5024159;28;20872;-77
2021/07/02 14:31:42;;;;;;;9.27;8.37;;;21.80;99.90;;;;;;5036433;28;20852;-76
2021/07/02 14:34:13;;;;;;;10.30;9.30;;;21.80;99.90;;;;;;5034777;28;20439;-77
2021/07/02 14:36:43;;;;;;;10.40;9.30;;;21.90;99.90;;;;;;5033966;28;20797;-77
2021/07/02 14:39:12;;;;;;;11.83;8.93;;;22.00;99.90;;;;;;5033763;28;20637;-77
2021/07/02 14:41:44;;;;;;;9.00;8.10;;;22.00;99.90;;;;;;5036602;28;20489;-78
2021/07/02 14:44:13;;;;;;;8.50;7.70;;;22.00;99.90;;;;;;5037563;28;20537;-77
2021/07/02 14:46:42;;;;;;;8.10;7.38;;;22.10;99.90;;;;;;5037223;28;20441;-77
2021/07/02 14:49:13;;;;;;;11.27;8.67;;;22.20;99.90;;;;;;5036569;28;20255;-77
2021/07/02 14:51:41;;;;;;;8.90;8.10;;;22.30;99.90;;;;;;5036682;28;20502;-77
2021/07/02 14:54:10;;;;;;;8.80;8.00;;;22.40;99.90;;;;;;5038897;28;20916;-77
2021/07/02 14:56:41;;;;;;;8.30;7.60;;;22.50;99.90;;;;;;5032037;28;20537;-77